Time;durP1;ratioP1;P1;durP2;ratioP2;P2;SDS_P1;SDS_P2;PMS_P1;PMS_P2;Temp;Humidity;BMP_temperature;BMP_pressure;BME280_temperature;BME280_humidity;BME280_pressure;Samples;Min_cycle;Max_cycle;Signal;HPM_P1;HPM_P2
2023/08/22 00:00:59;;;;;;;7.55;6.85;;;;;;;20.67;62.26;95137.97;5122340;27;20023;-70
2023/08/22 00:03:25;;;;;;;7.55;6.80;;;;;;;20.66;61.65;95128.41;5111015;28;20043;-70
2023/08/22 00:05:50;;;;;;;7.65;6.85;;;;;;;20.81;61.44;95136.34;5128483;27;20031;-70
2023/08/22 00:08:15;;;;;;;8.65;6.97;;;;;;;20.75;61.25;95128.16;5123280;27;20061;-70
2023/08/22 00:10:41;;;;;;;7.80;7.00;;;;;;;20.88;61.49;95138.06;5129789;27;20121;-71
2023/08/22 00:13:06;;;;;;;7.80;7.10;;;;;;;20.92;61.17;95123.50;5135248;27;20031;-70
2023/08/22 00:15:32;;;;;;;8.45;7.40;;;;;;;20.96;61.10;95131.88;5122364;27;20032;-70
2023/08/22 00:17:57;;;;;;;8.32;7.53;;;;;;;20.78;61.81;95136.69;5095890;28;20027;-70
2023/08/22 00:20:23;;;;;;;8.38;7.20;;;;;;;20.80;61.86;95135.53;5104824;28;20038;-70
2023/08/22 00:22:49;;;;;;;8.43;7.55;;;;;;;20.80;61.75;95137.34;5108031;27;20035;-70
2023/08/22 00:25:14;;;;;;;9.10;7.43;;;;;;;20.93;61.60;95135.69;5110570;27;20058;-70
2023/08/22 00:27:39;;;;;;;7.70;7.00;;;;;;;20.92;61.22;95128.78;5126104;27;20038;-70
2023/08/22 00:30:05;;;;;;;8.02;7.25;;;;;;;20.93;61.30;95126.97;5116232;27;20034;-70
2023/08/22 00:32:31;;;;;;;8.48;7.65;;;;;;;20.97;61.36;95125.59;5130046;27;20036;-70
2023/08/22 00:34:57;;;;;;;7.78;7.00;;;;;;;20.73;62.55;95126.72;5109902;28;20032;-70
2023/08/22 00:37:22;;;;;;;8.32;7.22;;;;;;;20.85;61.84;95122.59;5116160;27;20110;-70
2023/08/22 00:39:47;;;;;;;8.85;7.63;;;;;;;20.82;61.99;95125.59;5117685;27;20031;-70
2023/08/22 00:42:13;;;;;;;8.85;7.15;;;;;;;20.64;61.92;95093.47;5133009;27;20023;-70
2023/08/22 00:44:38;;;;;;;7.93;7.07;;;;;;;20.89;61.93;95126.50;5130383;27;20034;-70
2023/08/22 00:47:04;;;;;;;8.60;7.80;;;;;;;20.47;63.44;95129.72;5094416;28;20036;-70
2023/08/22 00:49:29;;;;;;;9.05;7.68;;;;;;;20.46;63.44;95128.91;5112671;27;20562;-70
2023/08/22 00:51:56;;;;;;;8.27;7.45;;;;;;;20.53;62.98;95123.75;5104724;27;20020;-70
2023/08/22 00:54:21;;;;;;;8.02;7.32;;;;;;;20.74;62.51;95137.06;5094551;27;20044;-71
2023/08/22 00:56:47;;;;;;;8.63;7.50;;;;;;;20.73;62.32;95122.25;5094458;27;20057;-70
2023/08/22 00:59:12;;;;;;;8.35;7.50;;;;;;;20.60;62.46;95126.50;5094365;28;20043;-70
2023/08/22 01:01:38;;;;;;;8.50;7.70;;;;;;;20.71;62.83;95128.69;5108904;28;20024;-70
2023/08/22 01:04:03;;;;;;;9.32;7.70;;;;;;;20.55;62.78;95136.78;5094330;28;20023;-70
2023/08/22 01:06:46;;;;;;;11.15;7.68;;;;;;;20.61;62.94;95138.69;5122683;27;20442;-70
2023/08/22 01:09:33;;;;;;;8.88;7.72;;;;;;;20.55;62.92;95120.94;5112349;27;20031;-70
2023/08/22 01:12:26;;;;;;;8.60;7.70;;;;;;;20.56;63.21;95138.41;5117080;27;20425;-70
2023/08/22 01:14:55;;;;;;;8.68;7.32;;;;;;;20.40;62.93;95134.09;5103353;27;20041;-70
2023/08/22 01:17:21;;;;;;;8.48;7.68;;;;;;;20.26;63.74;95130.44;5094842;28;20505;-70
2023/08/22 01:19:47;;;;;;;8.38;7.55;;;;;;;20.25;64.01;95118.22;5106162;27;20039;-70
2023/08/22 01:22:12;;;;;;;8.30;7.50;;;;;;;20.17;64.17;95123.59;5123086;27;20031;-71
2023/08/22 01:24:37;;;;;;;8.98;8.07;;;;;;;19.72;64.95;95083.09;5123270;27;20024;-70
2023/08/22 01:27:04;;;;;;;8.93;7.78;;;;;;;20.14;64.36;95130.03;5122192;27;20036;-70
2023/08/22 01:29:34;;;;;;;8.77;7.95;;;;;;;20.14;64.73;95123.94;5101909;27;20041;-71
2023/08/22 01:32:05;;;;;;;10.60;8.00;;;;;;;20.15;64.62;95126.41;5121978;27;20073;-70
2023/08/22 01:34:31;;;;;;;8.63;7.82;;;;;;;20.15;65.02;95121.13;5107653;28;20035;-70
2023/08/22 01:36:57;;;;;;;10.57;7.95;;;;;;;20.20;64.88;95129.34;5100375;27;20496;-70
2023/08/22 01:39:22;;;;;;;8.48;7.68;;;;;;;20.23;64.70;95128.16;5095797;27;20033;-70
2023/08/22 01:41:48;;;;;;;8.95;8.00;;;;;;;20.28;64.54;95126.63;5114620;27;20027;-71
2023/08/22 01:44:13;;;;;;;9.23;8.05;;;;;;;20.29;64.33;95132.72;5110468;27;20413;-70
2023/08/22 01:46:39;;;;;;;9.18;7.85;;;;;;;20.19;64.37;95119.78;5115099;27;20034;-70
2023/08/22 01:49:04;;;;;;;8.90;8.07;;;;;;;19.98;64.76;95112.56;5127657;27;20024;-70
2023/08/22 01:51:29;;;;;;;8.48;7.68;;;;;;;20.26;64.33;95127.81;5118886;27;20035;-70
2023/08/22 01:53:55;;;;;;;8.60;7.80;;;;;;;20.24;64.40;95121.88;5094644;28;20410;-70
2023/08/22 01:56:20;;;;;;;8.45;7.65;;;;;;;20.19;64.54;95101.31;5112070;28;20038;-70
2023/08/22 01:58:46;;;;;;;8.75;7.85;;;;;;;20.48;63.79;95131.38;5119803;27;20393;-70
2023/08/22 02:01:11;;;;;;;9.25;7.75;;;;;;;20.18;65.02;95135.78;5131812;27;20019;-70
2023/08/22 02:03:38;;;;;;;8.93;8.00;;;;;;;20.36;64.45;95138.91;5112725;27;20031;-70
2023/08/22 02:06:04;;;;;;;9.85;8.18;;;;;;;20.26;64.45;95130.44;5125093;27;20464;-70
2023/08/22 02:08:29;;;;;;;9.05;7.82;;;;;;;20.22;64.27;95122.03;5110249;28;20036;-70
2023/08/22 02:10:54;;;;;;;9.10;7.53;;;;;;;20.26;64.59;95130.44;5121261;27;20019;-70
2023/08/22 02:13:20;;;;;;;8.85;7.93;;;;;;;20.29;64.36;95128.25;5115072;27;20038;-70
2023/08/22 02:15:45;;;;;;;11.63;7.60;;;;;;;20.15;64.21;95115.06;5116484;27;20434;-70
2023/08/22 02:18:11;;;;;;;8.85;7.85;;;;;;;20.04;64.74;95124.22;5132727;27;20031;-70
2023/08/22 02:20:36;;;;;;;8.52;7.72;;;;;;;20.08;64.73;95131.56;5110090;28;20035;-70
2023/08/22 02:23:02;;;;;;;8.27;7.47;;;;;;;20.12;64.59;95123.31;5114721;27;20550;-70
2023/08/22 02:25:27;;;;;;;8.60;7.80;;;;;;;20.12;64.44;95131.25;5130994;27;20042;-70
2023/08/22 02:27:53;;;;;;;8.40;7.60;;;;;;;20.08;64.37;95117.56;5114101;27;20023;-70
2023/08/22 02:30:18;;;;;;;9.23;8.18;;;;;;;20.19;64.30;95126.88;5129525;27;20024;-70
2023/08/22 02:32:44;;;;;;;8.95;8.15;;;;;;;20.00;64.90;95136.94;5125160;27;20488;-70
2023/08/22 02:35:09;;;;;;;9.00;8.10;;;;;;;19.89;64.94;95116.22;5120716;27;20057;-70
2023/08/22 02:37:34;;;;;;;8.90;8.00;;;;;;;20.02;64.90;95129.66;5116419;27;20035;-70
2023/08/22 02:40:00;;;;;;;8.73;7.82;;;;;;;19.93;65.11;95135.97;5127182;27;20375;-71
2023/08/22 02:42:25;;;;;;;8.82;8.02;;;;;;;20.01;65.16;95133.28;5105449;27;20573;-72
2023/08/22 02:44:51;;;;;;;9.93;8.90;;;;;;;19.86;65.28;95132.41;5098792;28;20027;-71
2023/08/22 02:47:18;;;;;;;10.35;8.65;;;;;;;19.78;65.17;95108.75;5123762;27;20031;-70
2023/08/22 02:49:43;;;;;;;9.10;8.20;;;;;;;19.85;65.45;95131.59;5105267;28;20024;-70
2023/08/22 02:52:09;;;;;;;9.27;8.18;;;;;;;19.91;65.15;95135.34;5107632;27;20038;-71
2023/08/22 02:54:34;;;;;;;9.23;8.10;;;;;;;20.02;65.18;95136.75;5097307;28;20108;-71
2023/08/22 02:57:00;;;;;;;8.77;7.93;;;;;;;19.83;65.38;95138.03;5129609;27;20488;-71
2023/08/22 02:59:25;;;;;;;9.30;8.40;;;;;;;19.78;65.67;95140.38;5112678;27;20023;-71
2023/08/22 03:01:50;;;;;;;8.93;8.13;;;;;;;19.82;65.69;95142.50;5128565;27;20505;-71
2023/08/22 03:04:16;;;;;;;10.02;8.73;;;;;;;19.85;65.71;95144.78;5145061;27;20031;-71
2023/08/22 03:06:41;;;;;;;9.55;8.55;;;;;;;19.69;65.66;95125.63;5147939;27;20031;-70
2023/08/22 03:09:07;;;;;;;10.27;7.82;;;;;;;19.87;65.76;95141.97;5142903;27;20030;-71
2023/08/22 03:11:32;;;;;;;9.63;8.68;;;;;;;19.78;65.87;95140.38;5126060;27;20035;-71
2023/08/22 03:13:58;;;;;;;9.20;8.25;;;;;;;19.77;65.95;95144.00;5119069;27;20409;-71
2023/08/22 03:16:23;;;;;;;11.77;8.77;;;;;;;19.94;65.54;95150.78;5110024;28;20051;-71
2023/08/22 03:18:49;;;;;;;9.30;8.27;;;;;;;19.81;65.59;95142.69;5118972;27;20019;-71
2023/08/22 03:21:14;;;;;;;8.55;7.75;;;;;;;19.83;65.62;95149.38;5128947;27;20072;-70
2023/08/22 03:23:39;;;;;;;9.68;8.38;;;;;;;19.87;65.21;95149.88;5130687;27;20027;-71
2023/08/22 03:26:10;;;;;;;8.60;7.63;;;;;;;19.74;65.68;95155.72;5130440;27;20035;-71
2023/08/22 03:28:36;;;;;;;9.85;8.55;;;;;;;19.72;65.90;95160.34;5121431;27;20062;-71
2023/08/22 03:31:02;;;;;;;10.10;8.68;;;;;;;19.69;65.90;95154.59;5128022;27;20027;-71
2023/08/22 03:33:28;;;;;;;9.32;8.25;;;;;;;19.69;65.99;95158.06;5116693;28;20439;-71
2023/08/22 03:35:54;;;;;;;9.50;8.52;;;;;;;19.69;65.80;95155.41;5128997;28;20106;-71
2023/08/22 03:38:19;;;;;;;11.02;8.35;;;;;;;19.57;65.97;95141.81;5124112;28;20035;-71
2023/08/22 03:40:45;;;;;;;9.60;8.65;;;;;;;19.56;66.05;95158.63;5097791;28;20045;-71
2023/08/22 03:43:10;;;;;;;8.48;7.72;;;;;;;19.51;66.20;95153.03;5124439;28;20035;-71
2023/08/22 03:45:36;;;;;;;9.43;8.45;;;;;;;19.51;66.38;95152.22;5126181;27;20462;-71
2023/08/22 03:48:03;;;;;;;9.48;8.57;;;;;;;19.42;66.34;95139.09;5130486;28;20081;-71
2023/08/22 03:50:32;;;;;;;9.68;8.68;;;;;;;19.49;66.47;95155.03;5118579;28;20028;-71
2023/08/22 03:52:57;;;;;;;9.40;8.48;;;;;;;19.43;66.64;95155.72;5131347;27;20047;-71
2023/08/22 03:55:23;;;;;;;9.98;8.90;;;;;;;19.43;66.25;95142.56;5131519;27;20038;-71
2023/08/22 03:57:48;;;;;;;13.23;8.52;;;;;;;19.36;66.68;95146.84;5130336;28;20088;-71
2023/08/22 04:00:14;;;;;;;9.30;8.50;;;;;;;19.43;66.54;95159.16;5129551;28;20039;-71
2023/08/22 04:02:39;;;;;;;11.27;8.82;;;;;;;19.36;67.02;95162.66;5129445;28;20035;-71
2023/08/22 04:05:05;;;;;;;9.55;8.55;;;;;;;19.40;66.78;95161.34;5114952;27;20031;-71
2023/08/22 04:07:30;;;;;;;9.43;8.60;;;;;;;19.55;66.66;95162.22;5092439;28;20062;-71
2023/08/22 04:09:56;;;;;;;10.13;9.07;;;;;;;19.43;66.74;95132.00;5118004;28;20031;-71
2023/08/22 04:12:21;;;;;;;10.55;9.52;;;;;;;19.47;67.14;95164.09;5129255;28;20080;-71
2023/08/22 04:14:47;;;;;;;11.52;8.95;;;;;;;19.67;66.83;95175.88;5124012;28;20023;-71
2023/08/22 04:17:12;;;;;;;10.15;8.80;;;;;;;19.69;66.69;95175.69;5128592;28;20512;-71
2023/08/22 04:19:38;;;;;;;10.35;9.27;;;;;;;19.49;67.07;95168.19;5079607;28;20028;-71
2023/08/22 04:22:04;;;;;;;9.73;8.73;;;;;;;19.74;66.85;95181.25;5114414;28;20111;-71
2023/08/22 04:24:30;;;;;;;9.23;8.32;;;;;;;19.80;66.47;95175.28;5113317;28;20027;-72
2023/08/22 04:26:55;;;;;;;9.82;8.77;;;;;;;19.64;66.30;95149.84;5114530;28;20032;-72
2023/08/22 04:29:21;;;;;;;10.13;8.40;;;;;;;19.96;66.07;95184.91;5115452;27;20512;-71
2023/08/22 04:31:46;;;;;;;8.70;7.80;;;;;;;20.02;65.78;95181.56;5114389;27;20032;-71
2023/08/22 04:34:12;;;;;;;10.10;8.68;;;;;;;19.81;65.86;95179.59;5114196;27;20481;-71
2023/08/22 04:36:37;;;;;;;9.35;8.52;;;;;;;19.92;65.33;95180.97;5114237;28;20036;-73
2023/08/22 04:39:03;;;;;;;9.60;8.43;;;;;;;19.92;64.25;95181.81;5113902;27;20031;-71
2023/08/22 04:41:28;;;;;;;9.27;8.25;;;;;;;19.75;65.24;95175.84;5096014;27;20414;-72
2023/08/22 04:43:53;;;;;;;9.35;8.45;;;;;;;19.88;64.95;95185.78;5112667;28;20038;-71
2023/08/22 04:46:19;;;;;;;9.45;8.48;;;;;;;19.83;64.82;95177.56;5114172;28;20457;-71
2023/08/22 04:48:44;;;;;;;10.60;8.30;;;;;;;19.86;64.83;95187.75;5123557;27;20023;-71
2023/08/22 04:51:10;;;;;;;9.52;8.45;;;;;;;20.11;64.19;95184.94;5116234;27;20060;-71
2023/08/22 04:53:35;;;;;;;9.85;8.80;;;;;;;20.05;65.47;95194.38;5133971;27;20054;-72
2023/08/22 04:56:00;;;;;;;13.30;8.90;;;;;;;20.13;65.58;95196.16;5133498;27;20039;-71
2023/08/22 04:58:26;;;;;;;11.82;8.98;;;;;;;20.28;65.12;95199.66;5120451;27;20520;-71
2023/08/22 05:00:52;;;;;;;10.25;8.80;;;;;;;20.58;64.47;95199.75;5119531;27;20064;-71
2023/08/22 05:03:19;;;;;;;12.82;9.00;;;;;;;20.53;64.48;95180.00;5134305;27;20072;-71
2023/08/22 05:05:45;;;;;;;15.02;8.75;;;;;;;20.95;63.65;95191.78;5125306;27;20118;-71
2023/08/22 05:08:10;;;;;;;10.98;8.80;;;;;;;21.03;62.78;95159.16;5113669;28;20038;-72
2023/08/22 05:10:35;;;;;;;11.40;8.50;;;;;;;21.33;62.44;95186.38;5114099;28;20508;-71
2023/08/22 05:13:01;;;;;;;8.68;7.85;;;;;;;21.47;61.06;95168.09;5095411;28;20093;-72
2023/08/22 05:15:26;;;;;;;12.27;8.90;;;;;;;21.71;60.57;95188.91;5095407;28;20036;-71
2023/08/22 05:17:51;;;;;;;9.73;8.82;;;;;;;21.89;59.94;95198.22;5126385;27;20039;-72
2023/08/22 05:20:17;;;;;;;9.07;8.10;;;;;;;22.11;59.65;95194.59;5132907;27;20034;-72
2023/08/22 05:22:42;;;;;;;10.30;8.98;;;;;;;22.22;59.11;95198.59;5126718;27;20084;-71
2023/08/22 05:25:08;;;;;;;11.02;8.90;;;;;;;22.39;58.69;95204.44;5112325;28;20031;-72
2023/08/22 05:27:34;;;;;;;10.73;8.93;;;;;;;22.52;57.89;95201.91;5119483;27;20034;-72
2023/08/22 05:29:59;;;;;;;9.93;8.88;;;;;;;22.67;57.42;95204.44;5133901;27;20043;-72
2023/08/22 05:32:24;;;;;;;10.98;8.85;;;;;;;22.75;57.18;95205.13;5132841;27;20061;-71
2023/08/22 05:34:50;;;;;;;9.88;8.50;;;;;;;23.12;56.23;95199.69;5129849;27;20031;-71
2023/08/22 05:37:15;;;;;;;10.15;9.13;;;;;;;22.83;56.93;95198.06;5116627;27;20124;-71
2023/08/22 05:39:41;;;;;;;9.63;8.73;;;;;;;23.28;55.79;95198.56;5123904;27;20508;-72
2023/08/22 05:42:06;;;;;;;14.90;8.82;;;;;;;23.17;56.27;95199.91;5131232;27;20039;-71
2023/08/22 05:44:32;;;;;;;10.50;8.70;;;;;;;23.16;56.21;95198.28;5130641;27;20492;-71
2023/08/22 05:46:58;;;;;;;10.68;8.70;;;;;;;23.27;55.60;95194.28;5123062;27;20489;-71
2023/08/22 05:49:23;;;;;;;10.02;8.43;;;;;;;23.32;54.68;95190.03;5111675;28;20037;-71
2023/08/22 05:51:49;;;;;;;11.15;8.77;;;;;;;23.33;54.77;95201.44;5112649;27;20459;-71
2023/08/22 05:54:14;;;;;;;11.63;8.32;;;;;;;23.15;55.30;95199.28;5118418;27;20054;-71
2023/08/22 05:56:40;;;;;;;11.65;8.63;;;;;;;23.47;54.87;95197.00;5128055;27;20027;-72
2023/08/22 05:59:05;;;;;;;10.25;9.25;;;;;;;23.49;55.38;95195.81;5119144;27;20404;-71
2023/08/22 06:01:30;;;;;;;12.13;9.15;;;;;;;23.21;55.15;95166.72;5126874;27;20088;-72
2023/08/22 06:03:57;;;;;;;16.58;9.73;;;;;;;23.66;54.89;95187.50;5129214;27;20517;-72
2023/08/22 06:06:22;;;;;;;13.55;9.80;;;;;;;23.60;54.69;95187.28;5117229;27;20035;-73
2023/08/22 06:08:48;;;;;;;10.30;9.23;;;;;;;23.95;54.60;95192.50;5110326;28;20022;-71
2023/08/22 06:11:13;;;;;;;15.23;9.15;;;;;;;23.94;54.23;95187.41;5121466;27;20034;-71
2023/08/22 06:13:39;;;;;;;9.30;8.40;;;;;;;24.50;52.45;95187.91;5125232;27;20096;-72
2023/08/22 06:16:04;;;;;;;9.93;8.75;;;;;;;24.47;52.79;95180.34;5124376;27;20031;-71
2023/08/22 06:18:29;;;;;;;9.50;8.60;;;;;;;24.57;52.29;95179.09;5132215;27;20027;-71
2023/08/22 06:20:59;;;;;;;9.27;8.18;;;;;;;25.03;50.75;95173.75;5130329;27;20020;-71
2023/08/22 06:23:25;;;;;;;9.35;8.13;;;;;;;25.03;50.53;95170.28;5121476;27;20054;-71
2023/08/22 06:25:50;;;;;;;9.27;8.13;;;;;;;24.90;50.68;95163.13;5112030;27;20023;-71
2023/08/22 06:28:16;;;;;;;8.52;7.57;;;;;;;25.14;50.28;95169.63;5112582;27;20051;-71
2023/08/22 06:30:41;;;;;;;9.13;8.13;;;;;;;25.17;50.62;95172.72;5126878;27;20160;-71
2023/08/22 06:33:07;;;;;;;9.52;7.95;;;;;;;25.19;50.04;95169.84;5116646;27;20031;-70
2023/08/22 06:35:32;;;;;;;12.85;8.32;;;;;;;25.18;50.20;95161.06;5110914;27;20055;-72
2023/08/22 06:37:58;;;;;;;8.85;7.90;;;;;;;25.42;49.77;95172.81;5117775;27;20035;-70
2023/08/22 06:40:23;;;;;;;10.00;7.55;;;;;;;25.51;49.82;95169.94;5115605;27;20023;-71
2023/08/22 06:42:49;;;;;;;9.35;7.90;;;;;;;25.55;49.66;95163.19;5129166;27;20521;-76
2023/08/22 06:45:14;;;;;;;9.30;7.85;;;;;;;25.50;49.87;95176.28;5108674;27;20408;-71
2023/08/22 06:47:40;;;;;;;9.13;7.85;;;;;;;25.28;49.83;95157.16;5114522;27;20500;-71
2023/08/22 06:50:07;;;;;;;8.70;7.90;;;;;;;25.76;49.79;95170.81;5112653;27;20024;-71
2023/08/22 06:52:32;;;;;;;10.57;8.70;;;;;;;25.65;49.31;95174.16;5114519;27;20042;-73
2023/08/22 06:54:58;;;;;;;9.45;7.85;;;;;;;25.79;49.04;95180.22;5105002;27;20404;-70
2023/08/22 06:57:23;;;;;;;9.75;7.70;;;;;;;25.85;48.69;95182.06;5110168;28;20032;-71
2023/08/22 06:59:49;;;;;;;9.68;8.23;;;;;;;26.00;48.63;95177.28;5115165;27;20466;-72
2023/08/22 07:02:15;;;;;;;12.10;8.00;;;;;;;26.15;48.35;95169.00;5118122;27;20096;-71
2023/08/22 07:04:40;;;;;;;8.80;7.90;;;;;;;26.49;47.83;95172.22;5117121;27;20026;-73
2023/08/22 07:07:05;;;;;;;8.77;7.88;;;;;;;26.77;46.80;95160.34;5124443;27;20067;-75
2023/08/22 07:09:31;;;;;;;10.43;8.63;;;;;;;27.09;45.90;95167.19;5096199;27;20401;-74
2023/08/22 07:11:56;;;;;;;10.77;8.27;;;;;;;26.62;47.13;95163.34;5115753;27;20534;-75
2023/08/22 07:14:22;;;;;;;9.00;8.07;;;;;;;27.04;46.59;95172.38;5128343;27;20023;-74
2023/08/22 07:16:47;;;;;;;10.95;8.27;;;;;;;27.08;45.70;95151.41;5126415;27;20389;-74
2023/08/22 07:19:12;;;;;;;10.18;8.02;;;;;;;27.31;46.16;95158.78;5111292;28;20093;-75
2023/08/22 07:21:38;;;;;;;12.60;8.48;;;;;;;27.14;45.65;95161.19;5110034;28;20069;-75
2023/08/22 07:24:04;;;;;;;11.82;8.48;;;;;;;27.03;46.62;95167.28;5109707;28;20042;-75
2023/08/22 07:26:30;;;;;;;9.30;8.02;;;;;;;27.15;46.11;95158.31;5093094;28;20266;-75
2023/08/22 07:28:55;;;;;;;9.23;7.93;;;;;;;27.52;45.61;95160.97;5093882;28;20031;-75
2023/08/22 07:31:20;;;;;;;9.02;7.82;;;;;;;27.34;45.04;95155.66;5111182;28;20032;-74
2023/08/22 07:33:46;;;;;;;10.07;8.18;;;;;;;27.62;44.49;95158.59;5115951;28;20050;-74
2023/08/22 07:36:18;;;;;;;10.80;8.30;;;;;;;27.85;44.32;95159.75;5117881;28;20118;-74
2023/08/22 07:38:43;;;;;;;8.93;8.02;;;;;;;27.83;44.19;95154.66;5116071;28;20039;-74
2023/08/22 07:41:10;;;;;;;8.40;7.53;;;;;;;28.12;43.79;95152.19;5120667;28;20099;-73
2023/08/22 07:43:35;;;;;;;12.00;8.50;;;;;;;28.16;43.92;95149.88;5109626;28;20023;-72
2023/08/22 07:46:01;;;;;;;9.57;8.60;;;;;;;27.80;44.10;95157.78;5109881;28;20503;-72
2023/08/22 07:48:26;;;;;;;9.60;8.60;;;;;;;27.76;44.25;95142.41;5110823;28;20039;-72
2023/08/22 07:50:51;;;;;;;8.90;8.00;;;;;;;27.49;44.83;95126.75;5111413;28;20032;-70
2023/08/22 07:53:17;;;;;;;8.68;7.78;;;;;;;27.65;44.61;95145.84;5075398;28;20052;-70
2023/08/22 07:55:46;;;;;;;12.13;8.88;;;;;;;27.88;44.38;95147.81;5113166;28;20032;-70
2023/08/22 07:58:11;;;;;;;11.85;8.45;;;;;;;28.21;44.06;95153.50;5096643;28;20032;-71
2023/08/22 08:00:37;;;;;;;9.73;8.25;;;;;;;28.37;43.69;95144.00;5115359;28;20398;-71
2023/08/22 08:03:03;;;;;;;11.25;8.43;;;;;;;28.41;43.17;95150.50;5096703;28;20032;-71
2023/08/22 08:05:29;;;;;;;12.52;7.97;;;;;;;28.21;43.03;95145.47;5113641;28;20386;-70
2023/08/22 08:07:55;;;;;;;12.95;8.40;;;;;;;28.21;43.79;95147.34;5114563;27;20062;-70
2023/08/22 08:10:20;;;;;;;9.57;8.57;;;;;;;28.63;42.38;95139.28;5079775;28;20028;-69
2023/08/22 08:12:46;;;;;;;9.23;8.30;;;;;;;28.56;42.70;95150.09;5113747;28;20500;-70
2023/08/22 08:15:11;;;;;;;13.20;8.20;;;;;;;28.49;42.90;95136.84;5114837;28;20076;-70
2023/08/22 08:17:37;;;;;;;12.65;8.13;;;;;;;28.51;42.67;95144.63;5113428;28;20039;-71
2023/08/22 08:20:03;;;;;;;11.10;7.57;;;;;;;28.59;42.44;95146.16;5113284;28;20400;-72
2023/08/22 08:22:28;;;;;;;10.73;7.85;;;;;;;29.02;40.84;95131.63;5113192;28;20031;-71
2023/08/22 08:24:54;;;;;;;13.73;8.18;;;;;;;28.90;41.81;95135.13;5114947;27;20458;-71
2023/08/22 08:27:20;;;;;;;13.40;8.27;;;;;;;29.02;41.49;95137.78;5113084;28;20486;-71
2023/08/22 08:29:46;;;;;;;11.38;8.25;;;;;;;29.09;41.41;95135.03;5113053;28;20031;-73
2023/08/22 08:32:11;;;;;;;9.93;7.68;;;;;;;29.67;40.68;95134.09;5113043;28;20032;-73
2023/08/22 08:34:37;;;;;;;11.07;7.68;;;;;;;29.51;40.51;95148.19;5112829;28;20027;-73
2023/08/22 08:37:04;;;;;;;9.20;7.28;;;;;;;29.72;39.98;95128.00;5095954;28;20093;-73
2023/08/22 08:39:29;;;;;;;9.70;6.85;;;;;;;29.97;38.10;95133.00;5112835;28;20023;-74
2023/08/22 08:42:06;;;;;;;9.57;6.63;;;;;;;30.06;37.76;95128.88;5112781;28;20034;-75
2023/08/22 08:44:33;;;;;;;10.90;7.28;;;;;;;29.81;39.20;95138.09;5096852;28;20046;-76
2023/08/22 08:46:59;;;;;;;9.80;7.93;;;;;;;30.07;39.24;95133.19;5079062;28;20055;-72
2023/08/22 08:49:25;;;;;;;10.68;7.47;;;;;;;29.88;39.60;95131.78;5112559;28;20488;-72
2023/08/22 08:51:50;;;;;;;8.43;7.38;;;;;;;29.84;39.81;95124.22;5095615;28;20096;-72
2023/08/22 08:54:16;;;;;;;9.07;7.10;;;;;;;29.98;38.09;95129.28;5112610;28;20486;-73
2023/08/22 08:56:41;;;;;;;9.55;6.57;;;;;;;29.97;38.07;95131.13;5095689;28;20255;-72
2023/08/22 08:59:07;;;;;;;7.55;6.65;;;;;;;30.23;37.62;95124.41;5113758;28;20023;-73
2023/08/22 09:01:32;;;;;;;9.13;7.47;;;;;;;30.33;37.48;95120.25;5095591;28;20477;-72
2023/08/22 09:03:57;;;;;;;7.65;6.95;;;;;;;30.60;37.11;95110.50;5113397;28;20031;-72
2023/08/22 09:06:23;;;;;;;9.50;6.78;;;;;;;30.63;37.20;95117.25;5112289;28;20039;-72
2023/08/22 09:09:03;;;;;;;11.85;7.00;;;;;;;30.41;37.15;95119.84;5112329;28;20069;-72
2023/08/22 09:11:29;;;;;;;8.50;6.65;;;;;;;30.20;36.72;95103.44;5095552;28;20445;-73
2023/08/22 09:13:55;;;;;;;8.70;6.38;;;;;;;30.53;36.00;95112.53;5112025;28;20084;-72
2023/08/22 09:16:23;;;;;;;11.55;6.45;;;;;;;30.50;35.97;95113.03;5097957;28;20108;-73
2023/08/22 09:18:48;;;;;;;7.18;5.65;;;;;;;30.37;35.19;95081.19;5133817;27;20102;-74
2023/08/22 09:21:14;;;;;;;13.82;6.00;;;;;;;30.61;35.15;95097.91;5133951;27;20408;-75
2023/08/22 09:23:40;;;;;;;7.05;5.50;;;;;;;30.77;34.64;95096.28;5115621;27;20035;-75
2023/08/22 09:26:05;;;;;;;6.30;5.70;;;;;;;30.99;33.31;95099.03;5098154;27;20031;-74
2023/08/22 09:28:31;;;;;;;9.25;6.00;;;;;;;31.06;35.40;95094.28;5115326;27;20050;-74
2023/08/22 09:30:56;;;;;;;9.73;5.72;;;;;;;31.26;33.79;95088.34;5130378;27;20026;-74
2023/08/22 09:33:21;;;;;;;8.07;5.30;;;;;;;30.91;33.41;95098.38;5131314;27;20027;-74
2023/08/22 09:35:48;;;;;;;8.13;6.05;;;;;;;31.23;34.07;95095.03;5132101;27;20031;-74
2023/08/22 09:38:13;;;;;;;7.97;5.88;;;;;;;31.17;33.54;95088.81;5132284;27;20024;-73
2023/08/22 09:40:50;;;;;;;7.03;5.50;;;;;;;31.12;33.79;95078.00;5131278;27;20126;-74
2023/08/22 09:43:16;;;;;;;8.48;5.63;;;;;;;31.26;33.73;95088.34;5115241;27;20082;-74
2023/08/22 09:45:42;;;;;;;10.90;5.97;;;;;;;31.25;33.13;95084.06;5132049;27;20481;-74
2023/08/22 09:48:08;;;;;;;6.28;5.57;;;;;;;31.26;33.12;95078.44;5127494;27;20059;-73
2023/08/22 09:50:35;;;;;;;6.93;5.13;;;;;;;31.20;30.85;95070.56;5115081;27;20027;-73
2023/08/22 09:53:00;;;;;;;5.63;5.00;;;;;;;31.38;30.96;95064.91;5086921;27;20047;-74
2023/08/22 09:55:26;;;;;;;7.65;5.35;;;;;;;31.52;30.24;95059.97;5114920;27;20027;-75
2023/08/22 09:57:51;;;;;;;11.07;5.35;;;;;;;31.41;30.14;95071.66;5114644;27;20119;-74
2023/08/22 10:00:17;;;;;;;8.70;5.40;;;;;;;31.30;30.69;95055.41;5132149;27;20027;-73
2023/08/22 10:02:42;;;;;;;7.50;5.03;;;;;;;31.26;30.08;95053.47;5095283;28;20067;-73
2023/08/22 10:05:09;;;;;;;8.18;5.53;;;;;;;31.32;30.34;95039.88;5109774;28;20040;-73
2023/08/22 10:07:34;;;;;;;6.35;4.95;;;;;;;31.48;29.80;95048.94;5110505;28;20056;-72
2023/08/22 10:10:00;;;;;;;6.60;4.70;;;;;;;31.38;29.87;95046.94;5093818;28;20038;-72
2023/08/22 10:12:25;;;;;;;6.93;5.40;;;;;;;31.36;30.28;95056.31;5110804;28;20027;-70
2023/08/22 10:14:56;;;;;;;7.13;5.03;;;;;;;31.32;30.26;95042.56;5094129;28;20028;-71
2023/08/22 10:17:22;;;;;;;7.78;5.28;;;;;;;31.53;29.46;95045.47;5110864;27;20035;-70
2023/08/22 10:19:47;;;;;;;6.70;5.38;;;;;;;31.67;29.42;95041.31;5092781;28;20402;-70
2023/08/22 10:22:13;;;;;;;6.15;5.30;;;;;;;31.60;29.79;95043.41;5110890;28;20028;-70
2023/08/22 10:24:40;;;;;;;8.45;5.53;;;;;;;31.50;29.82;95035.25;5111020;28;20032;-71
2023/08/22 10:27:06;;;;;;;9.07;5.13;;;;;;;31.41;30.13;95044.81;5110880;28;20032;-71
2023/08/22 10:29:38;;;;;;;7.45;5.30;;;;;;;31.49;30.02;95042.50;5110764;28;20039;-71
2023/08/22 10:32:03;;;;;;;9.65;5.38;;;;;;;31.47;30.55;95025.84;5111850;27;20035;-71
2023/08/22 10:34:37;;;;;;;9.23;5.20;;;;;;;31.57;30.02;95031.31;5111905;28;20024;-71
2023/08/22 10:37:03;;;;;;;6.50;5.15;;;;;;;31.80;29.52;95040.91;5111871;28;20035;-71
2023/08/22 10:39:44;;;;;;;8.02;4.95;;;;;;;31.70;28.84;95030.06;5093727;28;20509;-70
2023/08/22 10:42:20;;;;;;;7.22;4.80;;;;;;;32.03;28.60;95033.63;5111626;28;20110;-71
2023/08/22 10:44:52;;;;;;;8.15;5.32;;;;;;;32.12;28.59;95020.53;5110604;28;20114;-71
2023/08/22 10:47:18;;;;;;;8.20;5.05;;;;;;;32.03;29.42;95025.56;5110401;28;20176;-70
2023/08/22 10:49:48;;;;;;;13.95;5.38;;;;;;;31.98;28.34;95026.34;5129663;27;20118;-71
2023/08/22 10:52:13;;;;;;;5.43;4.93;;;;;;;31.66;29.58;95022.81;5114166;27;20602;-71
2023/08/22 10:55:01;;;;;;;7.93;5.00;;;;;;;31.89;29.24;95029.72;5113704;27;20059;-71
2023/08/22 10:57:27;;;;;;;6.05;5.13;;;;;;;31.71;29.13;95031.72;5130720;27;20556;-71
2023/08/22 10:59:58;;;;;;;6.90;5.20;;;;;;;31.75;29.82;95023.94;5113711;27;20054;-71
2023/08/22 11:02:34;;;;;;;7.18;4.80;;;;;;;31.65;29.49;95022.00;5131978;27;20594;-70
2023/08/22 11:05:00;;;;;;;6.00;5.38;;;;;;;31.60;30.02;95020.06;5113950;27;20035;-70
2023/08/22 11:07:27;;;;;;;7.05;5.35;;;;;;;31.69;29.32;95028.47;5096626;27;20099;-72
2023/08/22 11:09:55;;;;;;;7.25;4.70;;;;;;;31.53;30.00;94981.06;5130545;27;20035;-73
2023/08/22 11:12:22;;;;;;;7.55;5.10;;;;;;;31.82;29.42;95028.06;5096340;27;20031;-72
2023/08/22 11:14:49;;;;;;;5.65;5.05;;;;;;;31.79;29.23;95025.09;5113544;27;20034;-74
2023/08/22 11:17:17;;;;;;;5.85;5.25;;;;;;;31.80;29.83;95003.31;5113403;28;20545;-73
2023/08/22 11:19:42;;;;;;;6.72;5.28;;;;;;;31.99;29.85;95022.59;5113333;27;20085;-74
2023/08/22 11:22:08;;;;;;;8.98;5.53;;;;;;;32.22;29.99;95028.69;5113180;27;20512;-74
2023/08/22 11:24:33;;;;;;;7.40;5.50;;;;;;;32.09;29.94;95037.16;5130438;27;20019;-73
2023/08/22 11:27:05;;;;;;;7.18;5.60;;;;;;;32.03;29.99;95034.44;5113391;28;20035;-74